sensor_id;sensor_type;location;lat;lon;timestamp;pressure;altitude;pressure_sealevel;temperature;humidity
57024;BME280;42916;54.346;18.562;2023-04-07T00:00:24;100859.35;;;2.75;100.00
57024;BME280;42916;54.346;18.562;2023-04-07T00:03:11;100862.20;;;2.77;100.00
57024;BME280;42916;54.346;18.562;2023-04-07T00:05:38;100854.73;;;2.76;100.00
57024;BME280;42916;54.346;18.562;2023-04-07T00:08:05;100856.56;;;2.75;100.00
57024;BME280;42916;54.346;18.562;2023-04-07T00:10:32;100859.06;;;2.75;100.00
57024;BME280;42916;54.346;18.562;2023-04-07T00:12:58;100854.27;;;2.77;100.00
57024;BME280;42916;54.346;18.562;2023-04-07T00:15:26;100853.48;;;2.80;100.00
57024;BME280;42916;54.346;18.562;2023-04-07T00:17:53;100854.37;;;2.82;100.00
57024;BME280;42916;54.346;18.562;2023-04-07T00:20:19;100850.98;;;2.82;100.00
57024;BME280;42916;54.346;18.562;2023-04-07T00:22:46;100849.38;;;2.83;100.00
57024;BME280;42916;54.346;18.562;2023-04-07T00:25:13;100849.88;;;2.84;100.00
57024;BME280;42916;54.346;18.562;2023-04-07T00:27:41;100845.00;;;2.84;100.00
57024;BME280;42916;54.346;18.562;2023-04-07T00:30:08;100837.11;;;2.84;100.00
57024;BME280;42916;54.346;18.562;2023-04-07T00:32:34;100835.44;;;2.83;100.00
57024;BME280;42916;54.346;18.562;2023-04-07T00:35:01;100834.98;;;2.81;100.00
57024;BME280;42916;54.346;18.562;2023-04-07T00:37:28;100833.11;;;2.80;100.00
57024;BME280;42916;54.346;18.562;2023-04-07T00:39:55;100835.54;;;2.81;100.00
57024;BME280;42916;54.346;18.562;2023-04-07T00:42:23;100830.66;;;2.81;100.00
57024;BME280;42916;54.346;18.562;2023-04-07T00:44:50;100832.20;;;2.82;100.00
57024;BME280;42916;54.346;18.562;2023-04-07T00:47:17;100827.53;;;2.81;100.00
57024;BME280;42916;54.346;18.562;2023-04-07T00:49:44;100820.55;;;2.82;100.00
57024;BME280;42916;54.346;18.562;2023-04-07T00:52:11;100821.45;;;2.82;100.00
57024;BME280;42916;54.346;18.562;2023-04-07T00:54:40;100814.34;;;2.81;100.00
57024;BME280;42916;54.346;18.562;2023-04-07T00:57:07;100816.99;;;2.81;100.00
57024;BME280;42916;54.346;18.562;2023-04-07T00:59:34;100810.02;;;2.81;100.00
57024;BME280;42916;54.346;18.562;2023-04-07T01:02:17;100815.64;;;2.82;100.00
57024;BME280;42916;54.346;18.562;2023-04-07T01:04:55;100815.73;;;2.83;100.00
57024;BME280;42916;54.346;18.562;2023-04-07T01:07:33;100811.23;;;2.83;100.00
57024;BME280;42916;54.346;18.562;2023-04-07T01:10:09;100809.28;;;2.84;100.00
57024;BME280;42916;54.346;18.562;2023-04-07T01:12:56;100807.96;;;2.85;100.00
57024;BME280;42916;54.346;18.562;2023-04-07T01:15:26;100808.23;;;2.86;100.00
57024;BME280;42916;54.346;18.562;2023-04-07T01:18:25;100802.02;;;2.85;100.00
57024;BME280;42916;54.346;18.562;2023-04-07T01:20:55;100801.44;;;2.86;100.00
57024;BME280;42916;54.346;18.562;2023-04-07T01:26:16;100789.70;;;2.86;100.00
57024;BME280;42916;54.346;18.562;2023-04-07T01:31:22;100782.65;;;2.87;100.00
57024;BME280;42916;54.346;18.562;2023-04-07T01:33:54;100781.44;;;2.85;100.00
57024;BME280;42916;54.346;18.562;2023-04-07T01:36:23;100779.15;;;2.85;100.00
57024;BME280;42916;54.346;18.562;2023-04-07T01:38:54;100784.66;;;2.85;100.00
57024;BME280;42916;54.346;18.562;2023-04-07T01:41:22;100782.69;;;2.87;100.00
57024;BME280;42916;54.346;18.562;2023-04-07T01:43:51;100786.62;;;2.88;100.00
57024;BME280;42916;54.346;18.562;2023-04-07T01:46:18;100787.79;;;2.89;100.00
57024;BME280;42916;54.346;18.562;2023-04-07T01:48:47;100787.70;;;2.88;100.00
57024;BME280;42916;54.346;18.562;2023-04-07T01:51:16;100787.42;;;2.89;100.00
57024;BME280;42916;54.346;18.562;2023-04-07T01:53:44;100785.55;;;2.89;100.00
57024;BME280;42916;54.346;18.562;2023-04-07T01:56:12;100780.89;;;2.91;100.00
57024;BME280;42916;54.346;18.562;2023-04-07T01:58:39;100780.27;;;2.90;100.00
57024;BME280;42916;54.346;18.562;2023-04-07T02:01:08;100783.53;;;2.90;100.00
57024;BME280;42916;54.346;18.562;2023-04-07T02:03:41;100783.91;;;2.90;100.00
57024;BME280;42916;54.346;18.562;2023-04-07T02:06:12;100782.71;;;2.91;100.00
57024;BME280;42916;54.346;18.562;2023-04-07T02:08:47;100785.61;;;2.90;100.00
57024;BME280;42916;54.346;18.562;2023-04-07T02:11:16;100782.99;;;2.91;100.00
57024;BME280;42916;54.346;18.562;2023-04-07T02:13:45;100787.20;;;2.93;100.00
57024;BME280;42916;54.346;18.562;2023-04-07T02:16:13;100790.67;;;2.94;100.00
57024;BME280;42916;54.346;18.562;2023-04-07T02:18:42;100789.15;;;2.95;100.00
57024;BME280;42916;54.346;18.562;2023-04-07T02:21:12;100787.96;;;2.96;100.00
57024;BME280;42916;54.346;18.562;2023-04-07T02:23:40;100791.61;;;2.97;100.00
57024;BME280;42916;54.346;18.562;2023-04-07T02:26:07;100795.20;;;2.98;100.00
57024;BME280;42916;54.346;18.562;2023-04-07T02:28:34;100797.98;;;2.98;100.00
57024;BME280;42916;54.346;18.562;2023-04-07T02:31:01;100794.27;;;3.00;100.00
57024;BME280;42916;54.346;18.562;2023-04-07T02:33:27;100785.84;;;3.01;100.00
57024;BME280;42916;54.346;18.562;2023-04-07T02:35:54;100785.11;;;3.03;100.00
57024;BME280;42916;54.346;18.562;2023-04-07T02:38:21;100780.61;;;3.02;100.00
57024;BME280;42916;54.346;18.562;2023-04-07T02:40:48;100780.35;;;3.01;100.00
57024;BME280;42916;54.346;18.562;2023-04-07T02:43:15;100779.55;;;3.00;100.00
57024;BME280;42916;54.346;18.562;2023-04-07T02:45:43;100776.45;;;2.99;100.00
57024;BME280;42916;54.346;18.562;2023-04-07T02:48:10;100779.55;;;2.98;100.00
57024;BME280;42916;54.346;18.562;2023-04-07T02:50:36;100778.13;;;2.98;100.00
57024;BME280;42916;54.346;18.562;2023-04-07T02:53:03;100777.40;;;3.00;100.00
57024;BME280;42916;54.346;18.562;2023-04-07T02:55:30;100777.08;;;2.99;100.00
57024;BME280;42916;54.346;18.562;2023-04-07T02:57:57;100771.91;;;2.99;100.00
57024;BME280;42916;54.346;18.562;2023-04-07T03:00:32;100774.52;;;3.00;100.00
57024;BME280;42916;54.346;18.562;2023-04-07T03:03:04;100771.05;;;3.00;100.00
57024;BME280;42916;54.346;18.562;2023-04-07T03:05:34;100772.37;;;3.01;100.00
57024;BME280;42916;54.346;18.562;2023-04-07T03:08:01;100767.74;;;3.03;100.00
57024;BME280;42916;54.346;18.562;2023-04-07T03:10:28;100768.36;;;3.02;100.00
57024;BME280;42916;54.346;18.562;2023-04-07T03:12:55;100768.52;;;3.02;100.00
57024;BME280;42916;54.346;18.562;2023-04-07T03:15:22;100770.64;;;3.03;100.00
57024;BME280;42916;54.346;18.562;2023-04-07T03:17:50;100769.36;;;3.03;100.00
57024;BME280;42916;54.346;18.562;2023-04-07T03:20:17;100768.48;;;3.04;100.00
57024;BME280;42916;54.346;18.562;2023-04-07T03:22:45;100767.34;;;3.05;100.00
57024;BME280;42916;54.346;18.562;2023-04-07T03:25:18;100767.65;;;3.05;100.00
57024;BME280;42916;54.346;18.562;2023-04-07T03:27:45;100770.75;;;3.06;100.00
57024;BME280;42916;54.346;18.562;2023-04-07T03:30:13;100772.12;;;3.08;100.00
57024;BME280;42916;54.346;18.562;2023-04-07T03:32:40;100771.55;;;3.08;100.00
57024;BME280;42916;54.346;18.562;2023-04-07T03:35:07;100775.27;;;3.08;100.00
57024;BME280;42916;54.346;18.562;2023-04-07T03:37:34;100771.61;;;3.10;100.00
57024;BME280;42916;54.346;18.562;2023-04-07T03:40:02;100771.70;;;3.12;100.00
57024;BME280;42916;54.346;18.562;2023-04-07T03:42:32;100773.25;;;3.14;100.00
57024;BME280;42916;54.346;18.562;2023-04-07T03:45:04;100772.70;;;3.16;100.00
57024;BME280;42916;54.346;18.562;2023-04-07T03:47:32;100775.52;;;3.19;100.00
57024;BME280;42916;54.346;18.562;2023-04-07T03:50:01;100781.02;;;3.21;100.00
57024;BME280;42916;54.346;18.562;2023-04-07T03:52:29;100777.21;;;3.20;100.00
57024;BME280;42916;54.346;18.562;2023-04-07T03:55:00;100775.76;;;3.18;100.00
57024;BME280;42916;54.346;18.562;2023-04-07T03:57:30;100772.25;;;3.19;100.00
57024;BME280;42916;54.346;18.562;2023-04-07T03:59:57;100773.06;;;3.18;100.00
57024;BME280;42916;54.346;18.562;2023-04-07T04:02:24;100773.10;;;3.17;100.00
57024;BME280;42916;54.346;18.562;2023-04-07T04:04:52;100768.29;;;3.16;100.00
57024;BME280;42916;54.346;18.562;2023-04-07T04:07:21;100773.13;;;3.15;100.00
57024;BME280;42916;54.346;18.562;2023-04-07T04:09:50;100773.67;;;3.16;100.00
57024;BME280;42916;54.346;18.562;2023-04-07T04:12:17;100771.04;;;3.19;100.00
57024;BME280;42916;54.346;18.562;2023-04-07T04:14:53;100771.50;;;3.19;100.00
57024;BME280;42916;54.346;18.562;2023-04-07T04:17:20;100776.39;;;3.20;100.00
57024;BME280;42916;54.346;18.562;2023-04-07T04:19:47;100777.02;;;3.23;100.00
57024;BME280;42916;54.346;18.562;2023-04-07T04:22:22;100774.14;;;3.24;100.00
57024;BME280;42916;54.346;18.562;2023-04-07T04:24:52;100783.16;;;3.25;100.00
57024;BME280;42916;54.346;18.562;2023-04-07T04:27:19;100782.05;;;3.25;100.00
57024;BME280;42916;54.346;18.562;2023-04-07T04:29:49;100785.55;;;3.25;100.00
57024;BME280;42916;54.346;18.562;2023-04-07T04:32:17;100786.54;;;3.24;100.00
57024;BME280;42916;54.346;18.562;2023-04-07T04:34:44;100783.64;;;3.24;100.00
57024;BME280;42916;54.346;18.562;2023-04-07T04:37:11;100783.27;;;3.24;100.00
57024;BME280;42916;54.346;18.562;2023-04-07T04:39:40;100786.33;;;3.24;100.00
57024;BME280;42916;54.346;18.562;2023-04-07T04:42:08;100783.73;;;3.23;100.00
57024;BME280;42916;54.346;18.562;2023-04-07T04:44:35;100775.17;;;3.25;100.00
57024;BME280;42916;54.346;18.562;2023-04-07T04:47:03;100770.21;;;3.25;100.00
57024;BME280;42916;54.346;18.562;2023-04-07T04:49:30;100765.95;;;3.25;100.00
57024;BME280;42916;54.346;18.562;2023-04-07T04:51:59;100763.17;;;3.24;100.00
57024;BME280;42916;54.346;18.562;2023-04-07T04:54:27;100757.38;;;3.24;100.00
57024;BME280;42916;54.346;18.562;2023-04-07T04:56:53;100750.55;;;3.24;100.00
57024;BME280;42916;54.346;18.562;2023-04-07T04:59:23;100752.00;;;3.24;100.00
57024;BME280;42916;54.346;18.562;2023-04-07T05:01:57;100746.50;;;3.23;100.00
57024;BME280;42916;54.346;18.562;2023-04-07T05:04:24;100749.64;;;3.24;100.00
57024;BME280;42916;54.346;18.562;2023-04-07T05:06:57;100750.85;;;3.26;100.00
57024;BME280;42916;54.346;18.562;2023-04-07T05:09:27;100756.72;;;3.26;100.00
57024;BME280;42916;54.346;18.562;2023-04-07T05:11:54;100765.29;;;3.26;100.00
57024;BME280;42916;54.346;18.562;2023-04-07T05:14:21;100769.64;;;3.27;100.00
57024;BME280;42916;54.346;18.562;2023-04-07T05:16:56;100769.23;;;3.29;100.00
57024;BME280;42916;54.346;18.562;2023-04-07T05:19:26;100770.29;;;3.32;100.00
57024;BME280;42916;54.346;18.562;2023-04-07T05:21:57;100771.95;;;3.33;100.00
57024;BME280;42916;54.346;18.562;2023-04-07T05:24:28;100779.02;;;3.33;100.00
57024;BME280;42916;54.346;18.562;2023-04-07T05:26:58;100769.23;;;3.33;100.00
57024;BME280;42916;54.346;18.562;2023-04-07T05:29:25;100764.05;;;3.33;100.00
57024;BME280;42916;54.346;18.562;2023-04-07T05:31:52;100763.14;;;3.34;100.00
57024;BME280;42916;54.346;18.562;2023-04-07T05:34:20;100755.89;;;3.35;100.00
57024;BME280;42916;54.346;18.562;2023-04-07T05:36:50;100763.55;;;3.35;100.00
57024;BME280;42916;54.346;18.562;2023-04-07T05:39:17;100766.21;;;3.35;100.00
57024;BME280;42916;54.346;18.562;2023-04-07T05:41:44;100776.42;;;3.40;100.00
57024;BME280;42916;54.346;18.562;2023-04-07T05:44:12;100778.45;;;3.45;100.00
57024;BME280;42916;54.346;18.562;2023-04-07T05:46:40;100782.95;;;3.49;100.00
57024;BME280;42916;54.346;18.562;2023-04-07T05:49:08;100781.17;;;3.49;100.00
57024;BME280;42916;54.346;18.562;2023-04-07T05:51:35;100778.91;;;3.50;100.00
57024;BME280;42916;54.346;18.562;2023-04-07T05:54:05;100782.48;;;3.51;100.00
57024;BME280;42916;54.346;18.562;2023-04-07T05:56:32;100782.73;;;3.52;100.00
57024;BME280;42916;54.346;18.562;2023-04-07T05:58:59;100783.44;;;3.53;100.00
57024;BME280;42916;54.346;18.562;2023-04-07T06:01:28;100786.45;;;3.54;100.00
57024;BME280;42916;54.346;18.562;2023-04-07T06:03:55;100791.39;;;3.56;100.00
57024;BME280;42916;54.346;18.562;2023-04-07T06:06:25;100788.58;;;3.58;100.00
57024;BME280;42916;54.346;18.562;2023-04-07T06:08:52;100786.74;;;3.61;100.00
57024;BME280;42916;54.346;18.562;2023-04-07T06:11:19;100781.29;;;3.63;100.00
57024;BME280;42916;54.346;18.562;2023-04-07T06:13:46;100770.58;;;3.66;100.00
57024;BME280;42916;54.346;18.562;2023-04-07T06:16:13;100771.59;;;3.69;100.00
57024;BME280;42916;54.346;18.562;2023-04-07T06:18:40;100781.66;;;3.73;100.00
57024;BME280;42916;54.346;18.562;2023-04-07T06:21:07;100790.95;;;3.79;100.00
57024;BME280;42916;54.346;18.562;2023-04-07T06:23:34;100798.48;;;3.86;100.00
57024;BME280;42916;54.346;18.562;2023-04-07T06:26:07;100796.00;;;3.89;100.00
57024;BME280;42916;54.346;18.562;2023-04-07T06:28:36;100798.92;;;3.96;100.00
57024;BME280;42916;54.346;18.562;2023-04-07T06:31:03;100799.61;;;4.01;100.00
57024;BME280;42916;54.346;18.562;2023-04-07T06:33:30;100800.77;;;4.08;100.00
57024;BME280;42916;54.346;18.562;2023-04-07T06:35:57;100805.39;;;4.08;100.00
57024;BME280;42916;54.346;18.562;2023-04-07T06:38:24;100802.84;;;4.11;100.00
57024;BME280;42916;54.346;18.562;2023-04-07T06:40:51;100801.02;;;4.15;100.00
57024;BME280;42916;54.346;18.562;2023-04-07T06:43:18;100804.73;;;4.20;100.00
57024;BME280;42916;54.346;18.562;2023-04-07T06:45:55;100802.65;;;4.21;100.00
57024;BME280;42916;54.346;18.562;2023-04-07T06:48:22;100801.25;;;4.25;100.00
57024;BME280;42916;54.346;18.562;2023-04-07T06:50:49;100803.45;;;4.26;100.00
57024;BME280;42916;54.346;18.562;2023-04-07T06:53:16;100809.46;;;4.30;100.00
57024;BME280;42916;54.346;18.562;2023-04-07T06:55:43;100807.48;;;4.38;100.00
57024;BME280;42916;54.346;18.562;2023-04-07T06:58:10;100802.08;;;4.45;100.00
57024;BME280;42916;54.346;18.562;2023-04-07T07:00:36;100807.41;;;4.46;100.00
57024;BME280;42916;54.346;18.562;2023-04-07T07:03:03;100808.38;;;4.44;100.00
57024;BME280;42916;54.346;18.562;2023-04-07T07:05:30;100808.66;;;4.39;100.00
57024;BME280;42916;54.346;18.562;2023-04-07T07:07:57;100801.86;;;4.35;100.00
57024;BME280;42916;54.346;18.562;2023-04-07T07:10:24;100804.30;;;4.33;100.00
57024;BME280;42916;54.346;18.562;2023-04-07T07:12:51;100806.08;;;4.31;100.00
57024;BME280;42916;54.346;18.562;2023-04-07T07:15:17;100809.70;;;4.33;100.00
57024;BME280;42916;54.346;18.562;2023-04-07T07:17:44;100810.64;;;4.35;100.00
57024;BME280;42916;54.346;18.562;2023-04-07T07:20:11;100812.30;;;4.38;100.00
57024;BME280;42916;54.346;18.562;2023-04-07T07:22:38;100818.31;;;4.37;100.00
57024;BME280;42916;54.346;18.562;2023-04-07T07:25:05;100815.45;;;4.34;100.00
57024;BME280;42916;54.346;18.562;2023-04-07T07:27:32;100815.52;;;4.29;100.00
57024;BME280;42916;54.346;18.562;2023-04-07T07:29:59;100810.70;;;4.28;100.00
57024;BME280;42916;54.346;18.562;2023-04-07T07:32:26;100815.09;;;4.26;100.00
57024;BME280;42916;54.346;18.562;2023-04-07T07:34:52;100811.55;;;4.20;100.00
57024;BME280;42916;54.346;18.562;2023-04-07T07:37:19;100810.75;;;4.16;100.00
57024;BME280;42916;54.346;18.562;2023-04-07T07:39:46;100814.94;;;4.14;100.00
57024;BME280;42916;54.346;18.562;2023-04-07T07:42:13;100816.17;;;4.13;100.00
57024;BME280;42916;54.346;18.562;2023-04-07T07:44:39;100813.39;;;4.14;100.00
57024;BME280;42916;54.346;18.562;2023-04-07T07:47:06;100814.08;;;4.17;100.00
57024;BME280;42916;54.346;18.562;2023-04-07T07:49:33;100818.39;;;4.20;100.00
57024;BME280;42916;54.346;18.562;2023-04-07T07:52:00;100817.69;;;4.21;100.00
57024;BME280;42916;54.346;18.562;2023-04-07T07:54:28;100816.66;;;4.21;100.00
57024;BME280;42916;54.346;18.562;2023-04-07T07:56:54;100808.00;;;4.20;100.00
57024;BME280;42916;54.346;18.562;2023-04-07T07:59:21;100809.77;;;4.23;100.00
57024;BME280;42916;54.346;18.562;2023-04-07T08:01:48;100820.88;;;4.23;100.00
57024;BME280;42916;54.346;18.562;2023-04-07T08:04:15;100832.02;;;4.23;100.00
57024;BME280;42916;54.346;18.562;2023-04-07T08:06:42;100832.03;;;4.24;100.00
57024;BME280;42916;54.346;18.562;2023-04-07T08:09:09;100832.54;;;4.24;100.00
57024;BME280;42916;54.346;18.562;2023-04-07T08:11:35;100830.86;;;4.22;100.00
57024;BME280;42916;54.346;18.562;2023-04-07T08:14:02;100824.36;;;4.21;100.00
57024;BME280;42916;54.346;18.562;2023-04-07T08:16:29;100822.09;;;4.23;100.00
57024;BME280;42916;54.346;18.562;2023-04-07T08:18:56;100818.63;;;4.29;100.00
57024;BME280;42916;54.346;18.562;2023-04-07T08:21:23;100817.89;;;4.35;100.00
57024;BME280;42916;54.346;18.562;2023-04-07T08:23:54;100816.34;;;4.45;100.00
57024;BME280;42916;54.346;18.562;2023-04-07T08:26:22;100823.27;;;4.52;100.00
57024;BME280;42916;54.346;18.562;2023-04-07T08:28:49;100820.91;;;4.49;100.00
57024;BME280;42916;54.346;18.562;2023-04-07T08:31:18;100820.16;;;4.48;100.00
57024;BME280;42916;54.346;18.562;2023-04-07T08:33:45;100820.30;;;4.43;100.00
57024;BME280;42916;54.346;18.562;2023-04-07T08:36:12;100820.23;;;4.41;100.00
57024;BME280;42916;54.346;18.562;2023-04-07T08:38:39;100819.67;;;4.37;100.00
57024;BME280;42916;54.346;18.562;2023-04-07T08:41:09;100822.66;;;4.35;100.00
57024;BME280;42916;54.346;18.562;2023-04-07T08:43:38;100825.76;;;4.35;100.00
57024;BME280;42916;54.346;18.562;2023-04-07T08:46:08;100831.98;;;4.35;100.00
57024;BME280;42916;54.346;18.562;2023-04-07T08:48:37;100823.73;;;4.37;100.00
57024;BME280;42916;54.346;18.562;2023-04-07T08:51:06;100823.50;;;4.41;100.00
57024;BME280;42916;54.346;18.562;2023-04-07T08:53:47;100821.89;;;4.42;100.00
57024;BME280;42916;54.346;18.562;2023-04-07T08:56:17;100822.73;;;4.47;100.00
57024;BME280;42916;54.346;18.562;2023-04-07T08:58:47;100815.39;;;4.55;100.00
57024;BME280;42916;54.346;18.562;2023-04-07T09:01:15;100817.48;;;4.62;100.00
57024;BME280;42916;54.346;18.562;2023-04-07T09:03:43;100813.17;;;4.67;100.00
57024;BME280;42916;54.346;18.562;2023-04-07T09:06:10;100811.10;;;4.72;100.00
57024;BME280;42916;54.346;18.562;2023-04-07T09:08:37;100810.89;;;4.74;100.00
57024;BME280;42916;54.346;18.562;2023-04-07T09:11:04;100807.41;;;4.73;100.00
57024;BME280;42916;54.346;18.562;2023-04-07T09:13:31;100807.25;;;4.71;100.00
57024;BME280;42916;54.346;18.562;2023-04-07T09:16:01;100804.56;;;4.76;100.00
57024;BME280;42916;54.346;18.562;2023-04-07T09:18:28;100803.31;;;4.77;100.00
57024;BME280;42916;54.346;18.562;2023-04-07T09:20:56;100800.20;;;4.71;100.00
57024;BME280;42916;54.346;18.562;2023-04-07T09:23:34;100801.45;;;4.73;100.00
57024;BME280;42916;54.346;18.562;2023-04-07T09:28:44;100799.84;;;4.78;100.00
57024;BME280;42916;54.346;18.562;2023-04-07T09:31:12;100800.23;;;4.78;100.00
57024;BME280;42916;54.346;18.562;2023-04-07T09:33:39;100801.83;;;4.81;100.00
57024;BME280;42916;54.346;18.562;2023-04-07T09:36:06;100802.94;;;4.86;100.00
57024;BME280;42916;54.346;18.562;2023-04-07T09:38:40;100799.41;;;4.91;100.00
57024;BME280;42916;54.346;18.562;2023-04-07T09:41:12;100797.09;;;4.89;100.00
57024;BME280;42916;54.346;18.562;2023-04-07T09:43:42;100800.23;;;4.91;100.00
57024;BME280;42916;54.346;18.562;2023-04-07T09:46:15;100800.41;;;4.97;100.00
57024;BME280;42916;54.346;18.562;2023-04-07T09:48:44;100807.49;;;5.04;100.00
57024;BME280;42916;54.346;18.562;2023-04-07T09:51:15;100808.40;;;5.04;100.00
57024;BME280;42916;54.346;18.562;2023-04-07T09:53:49;100808.32;;;5.05;100.00
57024;BME280;42916;54.346;18.562;2023-04-07T09:56:20;100809.93;;;5.07;100.00
57024;BME280;42916;54.346;18.562;2023-04-07T09:58:50;100807.65;;;5.12;100.00
57024;BME280;42916;54.346;18.562;2023-04-07T10:01:20;100814.83;;;5.11;100.00
57024;BME280;42916;54.346;18.562;2023-04-07T10:03:47;100810.48;;;5.08;100.00
57024;BME280;42916;54.346;18.562;2023-04-07T10:06:16;100805.27;;;5.13;100.00
57024;BME280;42916;54.346;18.562;2023-04-07T10:08:43;100797.59;;;5.20;100.00
57024;BME280;42916;54.346;18.562;2023-04-07T10:11:10;100800.87;;;5.26;100.00
57024;BME280;42916;54.346;18.562;2023-04-07T10:13:39;100799.58;;;5.29;100.00
57024;BME280;42916;54.346;18.562;2023-04-07T10:16:06;100802.91;;;5.39;100.00
57024;BME280;42916;54.346;18.562;2023-04-07T10:18:35;100806.79;;;5.47;100.00
57024;BME280;42916;54.346;18.562;2023-04-07T10:21:04;100812.58;;;5.59;100.00
57024;BME280;42916;54.346;18.562;2023-04-07T10:23:46;100809.36;;;5.68;100.00
57024;BME280;42916;54.346;18.562;2023-04-07T10:26:16;100811.35;;;5.81;100.00
57024;BME280;42916;54.346;18.562;2023-04-07T10:28:47;100807.68;;;5.93;100.00
57024;BME280;42916;54.346;18.562;2023-04-07T10:31:17;100808.04;;;6.05;100.00
57024;BME280;42916;54.346;18.562;2023-04-07T10:33:49;100804.20;;;6.15;100.00
57024;BME280;42916;54.346;18.562;2023-04-07T10:36:18;100807.98;;;6.21;100.00
57024;BME280;42916;54.346;18.562;2023-04-07T10:41:37;100802.48;;;6.16;100.00
57024;BME280;42916;54.346;18.562;2023-04-07T10:44:06;100798.36;;;6.18;100.00
57024;BME280;42916;54.346;18.562;2023-04-07T10:49:13;100796.78;;;6.18;100.00
57024;BME280;42916;54.346;18.562;2023-04-07T10:51:41;100794.59;;;6.23;100.00
57024;BME280;42916;54.346;18.562;2023-04-07T11:04:39;100792.88;;;6.59;100.00
57024;BME280;42916;54.346;18.562;2023-04-07T11:07:07;100800.69;;;6.65;100.00
57024;BME280;42916;54.346;18.562;2023-04-07T11:09:34;100793.35;;;6.72;100.00
57024;BME280;42916;54.346;18.562;2023-04-07T11:12:02;100791.58;;;6.81;100.00
57024;BME280;42916;54.346;18.562;2023-04-07T11:14:30;100788.63;;;6.81;100.00
57024;BME280;42916;54.346;18.562;2023-04-07T11:16:58;100785.40;;;6.79;100.00
57024;BME280;42916;54.346;18.562;2023-04-07T11:19:27;100785.02;;;6.73;100.00
57024;BME280;42916;54.346;18.562;2023-04-07T11:22:15;100780.94;;;6.64;100.00
57024;BME280;42916;54.346;18.562;2023-04-07T11:24:45;100786.17;;;6.65;100.00
57024;BME280;42916;54.346;18.562;2023-04-07T11:27:12;100781.83;;;6.77;100.00
57024;BME280;42916;54.346;18.562;2023-04-07T11:29:39;100779.27;;;6.95;100.00
57024;BME280;42916;54.346;18.562;2023-04-07T11:32:06;100781.88;;;7.14;100.00
57024;BME280;42916;54.346;18.562;2023-04-07T11:34:35;100781.58;;;7.31;100.00
57024;BME280;42916;54.346;18.562;2023-04-07T11:37:22;100781.00;;;7.54;100.00
57024;BME280;42916;54.346;18.562;2023-04-07T11:39:57;100775.58;;;7.72;100.00
57024;BME280;42916;54.346;18.562;2023-04-07T11:42:35;100773.81;;;7.93;100.00
57024;BME280;42916;54.346;18.562;2023-04-07T11:45:03;100773.34;;;8.11;100.00
57024;BME280;42916;54.346;18.562;2023-04-07T11:47:38;100772.42;;;8.25;100.00
57024;BME280;42916;54.346;18.562;2023-04-07T11:50:05;100767.23;;;8.29;100.00
57024;BME280;42916;54.346;18.562;2023-04-07T11:52:43;100769.68;;;8.41;100.00
57024;BME280;42916;54.346;18.562;2023-04-07T11:55:21;100763.73;;;8.58;100.00
57024;BME280;42916;54.346;18.562;2023-04-07T11:57:50;100763.95;;;8.53;100.00
57024;BME280;42916;54.346;18.562;2023-04-07T12:00:18;100763.33;;;8.47;100.00
57024;BME280;42916;54.346;18.562;2023-04-07T12:02:45;100770.36;;;8.51;100.00
57024;BME280;42916;54.346;18.562;2023-04-07T12:05:12;100766.14;;;8.56;100.00
57024;BME280;42916;54.346;18.562;2023-04-07T12:07:39;100762.99;;;8.58;99.93
57024;BME280;42916;54.346;18.562;2023-04-07T12:10:23;100766.98;;;8.61;100.00
57024;BME280;42916;54.346;18.562;2023-04-07T12:12:53;100761.98;;;8.71;99.36
57024;BME280;42916;54.346;18.562;2023-04-07T12:15:20;100757.17;;;8.75;99.11
57024;BME280;42916;54.346;18.562;2023-04-07T12:17:47;100762.45;;;8.83;97.87
57024;BME280;42916;54.346;18.562;2023-04-07T12:20:14;100763.78;;;8.96;98.33
57024;BME280;42916;54.346;18.562;2023-04-07T12:22:41;100760.09;;;9.10;97.88
57024;BME280;42916;54.346;18.562;2023-04-07T12:25:08;100761.58;;;9.28;97.27
57024;BME280;42916;54.346;18.562;2023-04-07T12:27:35;100759.94;;;9.39;96.50
57024;BME280;42916;54.346;18.562;2023-04-07T12:30:02;100763.39;;;9.54;95.92
57024;BME280;42916;54.346;18.562;2023-04-07T12:32:29;100768.25;;;9.69;94.23
57024;BME280;42916;54.346;18.562;2023-04-07T12:34:58;100765.66;;;9.86;94.38
57024;BME280;42916;54.346;18.562;2023-04-07T12:37:25;100767.77;;;10.10;93.46
57024;BME280;42916;54.346;18.562;2023-04-07T12:39:53;100774.90;;;10.22;92.53
57024;BME280;42916;54.346;18.562;2023-04-07T12:42:19;100772.70;;;10.37;91.85
57024;BME280;42916;54.346;18.562;2023-04-07T12:44:46;100774.65;;;10.40;89.53
57024;BME280;42916;54.346;18.562;2023-04-07T12:47:13;100778.15;;;10.44;88.93
57024;BME280;42916;54.346;18.562;2023-04-07T12:49:40;100778.55;;;10.58;88.12
57024;BME280;42916;54.346;18.562;2023-04-07T12:52:07;100781.66;;;10.62;86.38
57024;BME280;42916;54.346;18.562;2023-04-07T12:54:34;100781.05;;;10.61;84.96
57024;BME280;42916;54.346;18.562;2023-04-07T12:57:00;100782.27;;;10.49;82.57
57024;BME280;42916;54.346;18.562;2023-04-07T12:59:27;100779.09;;;10.33;82.56
57024;BME280;42916;54.346;18.562;2023-04-07T13:01:54;100778.13;;;10.29;82.67
57024;BME280;42916;54.346;18.562;2023-04-07T13:04:21;100783.89;;;10.16;82.01
57024;BME280;42916;54.346;18.562;2023-04-07T13:06:49;100782.05;;;10.07;81.73
57024;BME280;42916;54.346;18.562;2023-04-07T13:09:16;100784.41;;;9.94;82.21
57024;BME280;42916;54.346;18.562;2023-04-07T13:11:43;100786.05;;;10.02;83.06